Time;durP1;ratioP1;P1;durP2;ratioP2;P2;SDS_P1;SDS_P2;PMS_P1;PMS_P2;Temp;Humidity;BMP_temperature;BMP_pressure;BME280_temperature;BME280_humidity;BME280_pressure;Samples;Min_cycle;Max_cycle;Signal;HPM_P1;HPM_P2
2023/01/14 00:00:29;;;;;;;;;7.33;5.00;;;;;11.86;63.26;101370.16;2105259;28;45499;-63
2023/01/14 00:01:30;;;;;;;;;5.00;4.67;;;;;11.86;63.41;101363.06;2104711;27;46694;-62
2023/01/14 00:02:32;;;;;;;;;7.67;4.33;;;;;11.86;63.33;101368.38;2105117;28;46628;-61
2023/01/14 00:03:33;;;;;;;;;8.00;5.25;;;;;11.86;63.60;101363.06;2092062;28;46811;-62
2023/01/14 00:04:33;;;;;;;;;4.33;3.67;;;;;11.85;63.37;101357.78;2090046;28;46671;-62
2023/01/14 00:05:33;;;;;;;;;6.33;4.00;;;;;11.85;63.31;101348.00;2096275;28;46276;-62
2023/01/14 00:06:37;;;;;;;;;5.33;5.33;;;;;11.85;63.52;101347.13;2087362;28;46176;-63
2023/01/14 00:07:37;;;;;;;;;7.00;5.00;;;;;11.84;63.65;101348.91;2096233;28;46486;-63
2023/01/14 00:08:38;;;;;;;;;3.67;3.67;;;;;11.83;63.64;101349.81;2104099;28;45532;-63
2023/01/14 00:09:38;;;;;;;;;3.67;3.67;;;;;11.82;63.67;101345.41;2100573;28;46302;-63
2023/01/14 00:10:39;;;;;;;;;8.33;7.00;;;;;11.82;63.79;101347.19;2105071;28;46362;-63
2023/01/14 00:11:51;;;;;;;;;6.00;6.00;;;;;11.83;63.76;101354.25;2105206;28;45251;-65
2023/01/14 00:12:55;;;;;;;;;5.50;4.00;;;;;11.82;63.80;101347.19;2104753;28;47125;-64
2023/01/14 00:13:56;;;;;;;;;4.25;4.25;;;;;11.82;64.20;101349.84;2103199;28;46793;-62
2023/01/14 00:14:56;;;;;;;;;4.33;3.00;;;;;11.81;64.17;101346.28;2088270;28;46232;-64
2023/01/14 00:15:57;;;;;;;;;4.33;4.33;;;;;11.79;64.09;101348.97;2091328;28;46173;-64
2023/01/14 00:16:59;;;;;;;;;5.75;5.00;;;;;11.78;64.17;101344.53;2097125;28;47102;-62
2023/01/14 00:17:59;;;;;;;;;4.25;4.25;;;;;11.77;64.55;101337.47;2105699;27;45974;-63
2023/01/14 00:19:00;;;;;;;;;4.00;4.00;;;;;11.76;64.58;101332.16;2103143;28;46432;-63
2023/01/14 00:20:00;;;;;;;;;7.67;5.00;;;;;11.77;64.24;101337.47;2103805;28;46098;-64
2023/01/14 00:21:13;;;;;;;;;3.00;3.00;;;;;11.78;64.52;101338.34;2104878;28;46347;-63
2023/01/14 00:22:13;;;;;;;;;5.00;4.50;;;;;11.75;64.73;101333.94;2104747;28;46471;-64
2023/01/14 00:23:14;;;;;;;;;3.00;2.33;;;;;11.75;64.92;101330.41;2096284;28;44864;-64
2023/01/14 00:24:16;;;;;;;;;3.00;3.00;;;;;11.74;65.00;101336.63;2095822;28;46285;-61
2023/01/14 00:25:17;;;;;;;;;4.75;4.75;;;;;11.73;65.10;101324.25;2104542;28;46345;-64
2023/01/14 00:26:17;;;;;;;;;3.33;3.33;;;;;11.72;65.01;101314.53;2102199;28;46059;-63
2023/01/14 00:27:18;;;;;;;;;4.33;3.00;;;;;11.72;65.36;101320.72;2099219;28;46628;-64
2023/01/14 00:28:18;;;;;;;;;5.00;3.67;;;;;11.71;65.49;101313.66;2104272;28;46346;-64
2023/01/14 00:29:22;;;;;;;;;7.67;5.00;;;;;11.71;65.40;101310.97;2104307;28;46793;-63
2023/01/14 00:30:22;;;;;;;;;7.00;3.00;;;;;11.72;65.46;101314.53;2106288;27;46776;-63
2023/01/14 00:31:26;;;;;;;;;4.33;3.67;;;;;11.71;65.40;101313.66;2113605;27;46369;-64
2023/01/14 00:32:26;;;;;;;;;3.00;3.00;;;;;11.72;65.53;101306.53;2104246;27;46882;-63
2023/01/14 00:33:27;;;;;;;;;5.00;4.00;;;;;11.72;65.55;101312.75;2104278;27;45996;-62
2023/01/14 00:34:28;;;;;;;;;6.00;3.67;;;;;11.73;65.64;101309.19;2104684;28;46945;-62
2023/01/14 00:35:28;;;;;;;;;3.00;3.00;;;;;11.71;65.85;101310.97;2104828;28;46135;-63
2023/01/14 00:36:28;;;;;;;;;4.67;3.00;;;;;11.72;65.69;101298.56;2104956;28;46586;-64
2023/01/14 00:37:29;;;;;;;;;5.33;3.00;;;;;11.72;65.76;101303.88;2105005;28;46857;-63
2023/01/14 00:38:29;;;;;;;;;3.00;3.00;;;;;11.72;66.50;101306.53;2095436;28;46593;-63
2023/01/14 00:39:29;;;;;;;;;3.67;3.67;;;;;11.70;66.24;101303.91;2096117;28;45815;-64
2023/01/14 00:40:30;;;;;;;;;5.67;4.33;;;;;11.70;66.28;101303.03;2109093;27;46591;-64
2023/01/14 00:41:30;;;;;;;;;3.67;2.33;;;;;11.70;66.18;101295.94;2113347;27;46488;-63
2023/01/14 00:42:30;;;;;;;;;3.33;3.33;;;;;11.71;66.45;101294.16;2105363;27;46508;-62
2023/01/14 00:43:31;;;;;;;;;3.00;3.00;;;;;11.71;66.97;101305.66;2104775;28;45163;-65
2023/01/14 00:44:31;;;;;;;;;5.00;3.00;;;;;11.70;66.96;101292.41;2104807;28;46432;-64
2023/01/14 00:45:31;;;;;;;;;3.67;2.33;;;;;11.68;66.86;101286.22;2103363;28;46350;-63
2023/01/14 00:46:33;;;;;;;;;4.33;4.33;;;;;11.68;67.46;101284.44;2103754;28;46747;-63
2023/01/14 00:47:34;;;;;;;;;4.25;3.75;;;;;11.67;67.49;101281.78;2096945;28;46342;-64
2023/01/14 00:48:35;;;;;;;;;4.00;3.00;;;;;11.67;67.77;101280.00;2099551;28;46462;-62
2023/01/14 00:49:35;;;;;;;;;5.00;4.00;;;;;11.68;68.00;101278.22;2105040;28;46816;-64
2023/01/14 00:50:35;;;;;;;;;5.00;5.00;;;;;11.67;68.04;101266.72;2098499;27;45938;-64
2023/01/14 00:51:36;;;;;;;;;5.00;4.00;;;;;11.67;68.09;101280.00;2096229;28;46566;-64
2023/01/14 00:52:36;;;;;;;;;6.00;5.00;;;;;11.67;68.57;101273.81;2103617;28;46461;-63
2023/01/14 00:53:38;;;;;;;;;1.00;1.00;;;;;11.67;68.71;101280.00;2103527;28;46181;-64
2023/01/14 00:54:38;;;;;;;;;2.00;2.00;;;;;11.67;68.89;101269.38;2103615;28;45191;-64
2023/01/14 00:55:38;;;;;;;;;4.00;1.00;;;;;11.68;68.85;101264.94;2105104;28;45702;-64
2023/01/14 00:56:39;;;;;;;;;4.00;4.00;;;;;11.67;69.17;101255.22;2100481;28;45579;-64
2023/01/14 00:57:39;;;;;;;;;4.00;4.00;;;;;11.67;69.03;101255.22;2104956;28;46426;-64
2023/01/14 00:58:40;;;;;;;;;3.67;2.67;;;;;11.68;69.06;101252.53;2105456;28;45941;-63
2023/01/14 00:59:40;;;;;;;;;2.67;2.67;;;;;11.70;69.13;101257.84;2104402;28;46412;-63
2023/01/14 01:00:41;;;;;;;;;3.00;3.00;;;;;11.70;69.58;101256.06;2104877;28;46261;-63
2023/01/14 01:01:41;;;;;;;;;3.00;3.00;;;;;11.71;69.26;101248.97;2095719;28;46274;-63
2023/01/14 01:02:41;;;;;;;;;5.00;3.33;;;;;11.72;69.65;101246.25;2094082;28;46262;-64
2023/01/14 01:03:48;;;;;;;;;3.33;2.00;;;;;11.72;69.87;101246.25;2089551;28;46575;-62
2023/01/14 01:04:48;;;;;;;;;2.25;2.00;;;;;11.72;69.97;101253.38;2092553;28;46747;-63
2023/01/14 01:05:49;;;;;;;;;4.67;3.00;;;;;11.71;69.78;101244.53;2104857;28;46325;-64
2023/01/14 01:06:50;;;;;;;;;5.00;3.00;;;;;11.72;70.43;101250.72;2106121;27;46377;-62
2023/01/14 01:07:50;;;;;;;;;3.67;2.33;;;;;11.71;70.88;101246.31;2109473;27;45962;-62
2023/01/14 01:08:58;;;;;;;;;2.00;2.00;;;;;11.70;70.09;101244.53;2104700;28;46273;-63
2023/01/14 01:09:58;;;;;;;;;2.00;1.25;;;;;11.69;70.35;101248.13;2099337;28;46815;-63
2023/01/14 01:10:59;;;;;;;;;2.33;2.33;;;;;11.68;70.59;101252.53;2098386;28;46500;-63
2023/01/14 01:11:59;;;;;;;;;4.00;3.00;;;;;11.67;70.47;101240.13;2099615;28;46759;-63
2023/01/14 01:12:59;;;;;;;;;3.00;3.00;;;;;11.67;70.64;101237.47;2101230;28;46311;-63
2023/01/14 01:14:00;;;;;;;;;3.00;3.00;;;;;11.66;70.73;101250.81;2101296;28;46659;-63
2023/01/14 01:15:00;;;;;;;;;3.00;3.00;;;;;11.64;70.80;101236.66;2104422;28;46677;-63
2023/01/14 01:16:03;;;;;;;;;5.67;3.00;;;;;11.63;70.75;101241.09;2100499;28;46320;-63
2023/01/14 01:17:04;;;;;;;;;3.00;3.00;;;;;11.62;70.85;101228.72;2096438;28;47531;-62
2023/01/14 01:18:05;;;;;;;;;4.00;4.00;;;;;11.61;70.99;101226.97;2103917;28;46663;-62
2023/01/14 01:19:05;;;;;;;;;4.00;4.00;;;;;11.60;71.11;101221.69;2105022;28;46424;-62
2023/01/14 01:20:07;;;;;;;;;3.33;3.33;;;;;11.58;70.85;101232.34;2095494;28;46826;-63
2023/01/14 01:21:14;;;;;;;;;4.75;3.75;;;;;11.59;71.00;101235.88;2089597;28;46294;-63
2023/01/14 01:22:15;;;;;;;;;5.00;5.00;;;;;11.59;71.14;101227.91;2096590;28;46141;-63
2023/01/14 01:23:16;;;;;;;;;6.00;5.00;;;;;11.60;71.53;101219.03;2096305;28;46636;-63
2023/01/14 01:24:16;;;;;;;;;5.33;5.00;;;;;11.59;71.62;101214.63;2099126;28;46465;-63
2023/01/14 01:25:16;;;;;;;;;4.67;4.67;;;;;11.59;70.93;101215.50;2102649;28;46310;-63
2023/01/14 01:26:20;;;;;;;;;4.00;4.00;;;;;11.59;71.35;101211.97;2102529;28;45543;-63
2023/01/14 01:27:20;;;;;;;;;6.75;5.00;;;;;11.59;71.09;101212.84;2097850;28;46798;-62
2023/01/14 01:28:20;;;;;;;;;8.00;8.00;;;;;11.59;71.33;101219.94;2104858;28;46675;-63
2023/01/14 01:29:21;;;;;;;;;5.33;5.33;;;;;11.59;71.20;101214.63;2100212;28;46089;-63
2023/01/14 01:30:22;;;;;;;;;4.33;4.33;;;;;11.59;71.24;101219.94;2103108;28;46523;-64
2023/01/14 01:31:24;;;;;;;;;6.25;6.25;;;;;11.59;71.59;101223.47;2105083;28;46773;-62
2023/01/14 01:32:25;;;;;;;;;8.00;7.00;;;;;11.59;71.29;101227.91;2103387;28;46202;-64
2023/01/14 01:33:25;;;;;;;;;9.00;7.00;;;;;11.60;71.63;101229.66;2104869;28;46282;-63
2023/01/14 01:34:25;;;;;;;;;7.00;7.00;;;;;11.60;71.75;101229.66;2103408;28;46320;-64
2023/01/14 01:35:26;;;;;;;;;7.00;6.00;;;;;11.58;71.48;101219.06;2103943;28;46301;-64
2023/01/14 01:36:27;;;;;;;;;5.00;5.00;;;;;11.59;71.59;101219.94;2103502;28;45908;-63
2023/01/14 01:37:28;;;;;;;;;5.75;5.00;;;;;11.59;71.91;101225.25;2109958;27;46882;-64
2023/01/14 01:38:29;;;;;;;;;6.33;5.67;;;;;11.58;71.84;101224.38;2112230;27;46471;-64
2023/01/14 01:39:30;;;;;;;;;5.25;5.00;;;;;11.58;71.67;101224.38;2102967;28;46860;-63
2023/01/14 01:40:30;;;;;;;;;9.00;6.67;;;;;11.59;71.83;101209.28;2104741;28;46103;-63
2023/01/14 01:41:32;;;;;;;;;4.67;4.67;;;;;11.60;71.80;101208.38;2103043;28;46657;-63
2023/01/14 01:42:34;;;;;;;;;6.50;6.00;;;;;11.60;71.90;101211.94;2104271;28;46710;-63
2023/01/14 01:43:35;;;;;;;;;10.00;6.75;;;;;11.60;71.76;101211.94;2101042;28;46982;-62
2023/01/14 01:44:35;;;;;;;;;7.33;6.00;;;;;11.62;71.91;101209.22;2103690;28;46360;-63
2023/01/14 01:45:47;;;;;;;;;7.67;7.67;;;;;11.63;71.76;101205.66;2101718;28;46307;-63
2023/01/14 01:46:47;;;;;;;;;7.25;7.25;;;;;11.63;71.99;101206.53;2104266;28;46878;-64
2023/01/14 01:48:03;;;;;;;;;9.00;9.00;;;;;11.63;72.00;101217.19;2097731;28;46945;-63
2023/01/14 01:49:09;;;;;;;;;7.00;7.00;;;;;11.64;71.95;101204.75;2104094;28;45640;-62
2023/01/14 01:50:10;;;;;;;;;7.50;6.50;;;;;11.64;72.23;101202.97;2101203;28;46720;-62
2023/01/14 01:51:15;;;;;;;;;6.00;6.00;;;;;11.64;72.22;101216.28;2100616;28;46552;-64
2023/01/14 01:52:20;;;;;;;;;7.00;7.00;;;;;11.64;72.19;101210.97;2099438;28;46765;-63
2023/01/14 01:53:21;;;;;;;;;7.25;7.00;;;;;11.63;71.81;101214.53;2100754;27;46547;-63
2023/01/14 01:54:26;;;;;;;;;6.33;6.00;;;;;11.63;72.26;101211.88;2103932;28;46522;-64
2023/01/14 01:55:30;;;;;;;;;9.50;7.75;;;;;11.66;72.21;101216.25;2096324;28;46338;-64
2023/01/14 01:56:35;;;;;;;;;5.50;5.50;;;;;11.67;72.23;101216.22;2098164;28;46078;-64
2023/01/14 01:57:36;;;;;;;;;3.50;2.00;;;;;11.67;72.17;101210.88;2104750;28;46922;-63
2023/01/14 01:58:37;;;;;;;;;7.00;6.50;;;;;11.67;72.10;101205.56;2102756;27;46576;-64
2023/01/14 01:59:41;;;;;;;;;6.33;6.00;;;;;11.69;72.07;101203.78;2105891;28;46421;-64
2023/01/14 02:00:42;;;;;;;;;8.00;7.00;;;;;11.71;72.43;101203.75;2104416;28;46369;-63
2023/01/14 02:01:42;;;;;;;;;6.00;5.67;;;;;11.71;72.22;101199.31;2105554;27;47503;-63
2023/01/14 02:02:45;;;;;;;;;7.00;4.33;;;;;11.73;72.39;101205.47;2105598;28;46592;-64
2023/01/14 02:03:47;;;;;;;;;7.50;5.00;;;;;11.74;72.53;101201.03;2097541;28;46295;-64
2023/01/14 02:04:48;;;;;;;;;4.00;4.00;;;;;11.74;72.56;101199.25;2102225;28;46620;-63
2023/01/14 02:05:51;;;;;;;;;5.00;5.00;;;;;11.76;72.34;101196.56;2105436;28;46358;-63
2023/01/14 02:06:51;;;;;;;;;5.00;4.00;;;;;11.76;72.34;101199.22;2106224;28;47014;-63
2023/01/14 02:07:52;;;;;;;;;4.33;4.33;;;;;11.76;72.53;101197.44;2104355;28;46677;-64
2023/01/14 02:08:55;;;;;;;;;5.00;5.00;;;;;11.77;72.55;101190.34;2104719;28;46822;-64
2023/01/14 02:10:00;;;;;;;;;5.00;5.00;;;;;11.77;72.90;101185.88;2104533;28;46698;-63
2023/01/14 02:11:38;;;;;;;;;4.75;4.75;;;;;11.76;72.44;101188.59;2105777;28;46328;-64
2023/01/14 02:13:03;;;;;;;;;4.75;4.75;;;;;11.75;72.51;101181.50;2105953;28;46818;-64
2023/01/14 02:15:00;;;;;;;;;5.50;5.00;;;;;11.77;72.65;101185.88;2104555;28;46972;-62
2023/01/14 02:16:29;;;;;;;;;4.50;4.50;;;;;11.81;72.93;101181.41;2079062;28;46814;-63
2023/01/14 02:18:01;;;;;;;;;5.50;5.50;;;;;11.82;72.79;101169.91;2055289;28;47061;-63
2023/01/14 02:19:23;;;;;;;;;5.50;4.25;;;;;11.82;73.09;101163.72;2054481;28;46743;-64
2023/01/14 02:20:34;;;;;;;;;4.50;4.50;;;;;11.82;73.16;101158.38;2055426;28;46539;-63
2023/01/14 02:21:41;;;;;;;;;4.00;4.00;;;;;11.82;72.86;101150.41;2054524;28;46333;-63
2023/01/14 02:23:19;;;;;;;;;8.50;6.00;;;;;11.81;73.20;101157.47;2054275;28;46667;-63
2023/01/14 02:24:42;;;;;;;;;4.00;4.00;;;;;11.81;73.37;101148.63;2054402;28;46829;-62
2023/01/14 02:26:17;;;;;;;;;5.00;5.00;;;;;11.79;73.75;101148.66;2055138;28;46634;-63
2023/01/14 02:27:39;;;;;;;;;4.00;2.75;;;;;11.78;73.47;101137.13;2055547;28;46382;-62
2023/01/14 02:28:58;;;;;;;;;4.50;4.50;;;;;11.80;73.62;101139.78;2055632;28;46940;-63
2023/01/14 02:30:21;;;;;;;;;5.00;5.00;;;;;11.81;73.62;101135.34;2057608;28;46708;-63
2023/01/14 02:31:25;;;;;;;;;3.00;3.00;;;;;11.80;73.62;101129.13;2051770;28;46480;-62
2023/01/14 02:32:44;;;;;;;;;3.25;3.25;;;;;11.79;73.88;101135.38;2057539;28;46626;-64
2023/01/14 02:33:55;;;;;;;;;3.25;3.00;;;;;11.81;73.99;101136.22;2055076;28;46713;-64
2023/01/14 02:35:23;;;;;;;;;4.25;4.25;;;;;11.82;73.78;101134.47;2047038;28;46362;-63
2023/01/14 02:36:36;;;;;;;;;3.75;3.75;;;;;11.81;73.50;101132.69;2050880;28;46590;-63
2023/01/14 02:37:55;;;;;;;;;3.00;3.00;;;;;11.82;73.94;101137.13;2055420;28;46489;-62
2023/01/14 02:39:14;;;;;;;;;3.75;2.75;;;;;11.85;73.76;101143.25;2055173;28;46903;-63
2023/01/14 02:40:26;;;;;;;;;2.50;2.50;;;;;11.85;74.21;101137.03;2054834;28;46726;-64
2023/01/14 02:44:36;;;;;;;;;3.00;3.00;;;;;11.89;73.86;101138.72;2055679;28;46360;-62
2023/01/14 02:45:46;;;;;;;;;3.00;3.00;;;;;11.89;74.01;101131.63;2054852;28;45625;-63
2023/01/14 02:46:52;;;;;;;;;3.00;2.75;;;;;11.91;73.97;101131.59;2057634;28;45290;-64
2023/01/14 02:47:52;;;;;;;;;4.00;4.00;;;;;11.91;74.17;101134.25;2063251;28;45583;-64
2023/01/14 02:48:55;;;;;;;;;2.00;2.00;;;;;11.92;74.08;101138.66;2054627;28;46706;-61
2023/01/14 02:49:59;;;;;;;;;3.00;2.25;;;;;11.93;73.83;101135.09;2048636;28;46632;-63
2023/01/14 02:51:00;;;;;;;;;2.50;2.50;;;;;11.93;73.81;101127.09;2056424;28;46378;-62
2023/01/14 02:52:04;;;;;;;;;3.33;3.00;;;;;11.93;73.90;101129.78;2056719;28;46692;-62
2023/01/14 02:53:10;;;;;;;;;3.00;2.00;;;;;11.94;73.99;101127.09;2071515;28;46442;-63
2023/01/14 02:54:11;;;;;;;;;2.50;2.50;;;;;11.95;73.89;101127.97;2079431;28;46689;-63
2023/01/14 02:55:33;;;;;;;;;2.75;1.75;;;;;11.95;73.79;101130.63;2087056;28;46958;-64
2023/01/14 02:56:34;;;;;;;;;1.00;1.00;;;;;11.95;74.00;101131.50;2099504;28;46597;-62
2023/01/14 02:57:51;;;;;;;;;1.33;1.33;;;;;11.95;74.16;101126.19;2105305;28;46464;-62
2023/01/14 02:58:51;;;;;;;;;3.00;2.25;;;;;11.94;74.42;101124.44;2105462;28;46315;-62
2023/01/14 03:00:16;;;;;;;;;4.00;3.00;;;;;11.96;74.13;101121.75;2102507;28;46616;-63
2023/01/14 03:01:46;;;;;;;;;3.25;2.00;;;;;11.97;74.26;101120.84;2098948;27;46723;-64
2023/01/14 03:02:46;;;;;;;;;2.00;1.50;;;;;11.98;74.02;101115.47;2105081;28;45792;-63
2023/01/14 03:03:53;;;;;;;;;1.33;1.33;;;;;12.00;73.83;101110.13;2104065;28;46698;-64
2023/01/14 03:05:16;;;;;;;;;3.00;1.75;;;;;12.00;73.79;101100.38;2105436;28;46575;-62
2023/01/14 03:06:46;;;;;;;;;1.50;1.50;;;;;12.01;73.91;101103.91;2104995;27;46551;-63
2023/01/14 03:07:58;;;;;;;;;2.00;2.00;;;;;12.01;73.98;101098.56;2103771;28;46443;-63
2023/01/14 03:09:31;;;;;;;;;3.50;2.25;;;;;12.02;74.03;101100.31;2097364;28;46625;-62
2023/01/14 03:10:44;;;;;;;;;3.00;3.00;;;;;12.03;73.98;101110.94;2086866;28;46403;-64
2023/01/14 03:11:55;;;;;;;;;3.25;2.50;;;;;12.05;74.03;101097.59;2093885;28;46200;-62
2023/01/14 03:13:02;;;;;;;;;3.00;1.25;;;;;12.06;73.73;101102.00;2095651;28;45840;-63
2023/01/14 03:14:09;;;;;;;;;2.50;1.50;;;;;12.07;73.90;101090.47;2094393;28;46746;-62
2023/01/14 03:15:21;;;;;;;;;3.00;3.00;;;;;12.05;73.76;101089.59;2090889;28;46381;-62
2023/01/14 03:16:28;;;;;;;;;2.00;2.00;;;;;12.06;73.73;101091.34;2096097;28;45570;-64
2023/01/14 03:17:41;;;;;;;;;2.00;2.00;;;;;12.05;73.56;101092.28;2096030;28;46543;-62
2023/01/14 03:18:46;;;;;;;;;3.25;1.50;;;;;12.06;73.85;101086.03;2096231;28;46717;-61
2023/01/14 03:19:56;;;;;;;;;1.00;1.00;;;;;12.05;73.44;101087.81;2095927;28;46315;-62
2023/01/14 03:21:03;;;;;;;;;0.00;0.00;;;;;12.06;73.67;101078.06;2096546;28;46616;-63
2023/01/14 03:22:05;;;;;;;;;1.50;1.50;;;;;12.05;73.54;101065.66;2093376;28;46844;-63
2023/01/14 03:23:12;;;;;;;;;2.25;1.00;;;;;12.05;73.47;101071.00;2094951;28;46687;-64
2023/01/14 03:24:18;;;;;;;;;0.50;0.50;;;;;12.05;73.46;101071.88;2096236;28;46412;-64
2023/01/14 03:25:22;;;;;;;;;3.00;1.50;;;;;12.05;73.54;101063.88;2093565;28;46906;-61
2023/01/14 03:26:25;;;;;;;;;1.25;1.25;;;;;12.04;73.47;101059.47;2091016;28;46771;-63
2023/01/14 03:27:30;;;;;;;;;1.00;0.25;;;;;12.05;73.22;101053.25;2096031;28;46630;-62
2023/01/14 03:28:36;;;;;;;;;1.00;1.00;;;;;12.06;73.08;101052.34;2095507;28;45573;-64
2023/01/14 03:29:42;;;;;;;;;1.00;0.00;;;;;12.05;73.08;101047.91;2088003;28;46354;-63
2023/01/14 03:30:53;;;;;;;;;0.50;0.00;;;;;12.04;73.00;101051.50;2080024;28;46041;-64
2023/01/14 03:32:00;;;;;;;;;1.75;1.75;;;;;12.04;73.10;101046.19;2088983;28;46658;-63
2023/01/14 03:33:06;;;;;;;;;3.00;2.75;;;;;12.05;73.29;101042.59;2095715;28;47449;-64
2023/01/14 03:34:12;;;;;;;;;1.00;0.25;;;;;12.07;73.16;101039.94;2095908;28;46367;-63
2023/01/14 03:35:20;;;;;;;;;1.25;1.25;;;;;12.06;73.09;101036.38;2095966;28;46775;-63
2023/01/14 03:36:24;;;;;;;;;1.00;1.00;;;;;12.07;73.08;101037.28;2096119;28;46748;-64
2023/01/14 03:37:28;;;;;;;;;1.00;1.00;;;;;12.09;73.12;101038.13;2095473;28;47062;-64
2023/01/14 03:38:39;;;;;;;;;2.25;1.00;;;;;12.11;72.87;101028.31;2095891;28;46800;-63
2023/01/14 03:39:44;;;;;;;;;0.00;0.00;;;;;12.13;72.73;101026.47;2095898;28;46372;-62
2023/01/14 03:40:47;;;;;;;;;1.50;0.00;;;;;12.13;72.54;101020.28;2096215;28;46693;-63
2023/01/14 03:43:23;;;;;;;;;1.75;1.00;;;;;12.13;72.59;101021.16;2095786;28;46308;-63
2023/01/14 03:44:31;;;;;;;;;2.25;1.25;;;;;12.12;72.75;101011.44;2093169;28;46123;-63
2023/01/14 03:45:37;;;;;;;;;1.00;1.00;;;;;12.13;72.63;101005.19;2094700;28;46611;-63
2023/01/14 03:46:38;;;;;;;;;2.00;2.00;;;;;12.14;72.66;101006.94;2096124;28;46320;-62
2023/01/14 03:47:39;;;;;;;;;3.00;2.00;;;;;12.14;72.57;101000.75;2087736;28;45531;-64
2023/01/14 03:48:39;;;;;;;;;1.00;1.00;;;;;12.15;72.40;101002.50;2096073;28;46299;-63
2023/01/14 03:49:39;;;;;;;;;2.33;1.00;;;;;12.15;72.46;101005.16;2099633;28;46501;-63
2023/01/14 03:50:53;;;;;;;;;3.00;2.00;;;;;12.15;72.50;101006.03;2104858;27;46222;-63
2023/01/14 03:52:18;;;;;;;;;1.25;1.25;;;;;12.14;72.49;101004.28;2103328;28;46235;-62
2023/01/14 03:54:09;;;;;;;;;0.00;0.00;;;;;12.15;72.55;100999.84;2102185;28;47143;-63
2023/01/14 03:55:14;;;;;;;;;2.00;1.00;;;;;12.15;72.43;101002.50;2079114;28;46417;-63
2023/01/14 03:56:21;;;;;;;;;1.00;1.00;;;;;12.17;72.58;101004.19;2087343;28;46254;-64
2023/01/14 03:57:31;;;;;;;;;3.00;3.00;;;;;12.17;72.45;100998.00;2089846;28;46596;-65
2023/01/14 03:58:40;;;;;;;;;3.00;3.00;;;;;12.17;72.80;100998.88;2087496;28;47076;-63
2023/01/14 03:59:53;;;;;;;;;0.00;0.00;;;;;12.17;72.66;100982.03;2087315;28;46325;-62
2023/01/14 04:01:02;;;;;;;;;1.00;1.00;;;;;12.17;72.45;100984.72;2079479;28;45923;-63
2023/01/14 04:02:04;;;;;;;;;1.25;1.25;;;;;12.17;72.53;100985.56;2070894;28;46880;-63
2023/01/14 04:03:09;;;;;;;;;0.25;0.00;;;;;12.18;72.42;100984.66;2071301;28;46885;-63
2023/01/14 04:04:11;;;;;;;;;2.25;0.00;;;;;12.17;72.53;100982.91;2080698;28;46506;-63
2023/01/14 04:05:12;;;;;;;;;1.75;1.00;;;;;12.18;72.45;100989.97;2086835;28;46746;-63
2023/01/14 04:06:13;;;;;;;;;0.00;0.00;;;;;12.19;72.38;100977.56;2089779;28;46931;-62
2023/01/14 04:07:14;;;;;;;;;3.75;2.00;;;;;12.19;72.29;100981.09;2096049;28;45984;-63
2023/01/14 04:08:19;;;;;;;;;3.75;2.00;;;;;12.20;72.34;100985.53;2097451;28;46563;-63
2023/01/14 04:09:20;;;;;;;;;1.00;1.00;;;;;12.20;72.36;100976.69;2094739;28;46945;-63
2023/01/14 04:10:20;;;;;;;;;4.00;1.00;;;;;12.21;72.39;100976.63;2087198;28;46406;-62
2023/01/14 04:11:20;;;;;;;;;1.00;1.00;;;;;12.21;72.38;100975.75;2087224;28;46697;-63
2023/01/14 04:12:21;;;;;;;;;2.00;0.67;;;;;12.20;72.46;100964.25;2087809;28;45557;-63
2023/01/14 04:16:00;;;;;;;;;1.75;1.75;;;;;12.21;72.44;100958.00;2088101;28;46748;-64
2023/01/14 04:17:00;;;;;;;;;2.00;2.00;;;;;12.22;72.30;100949.13;2090934;28;45682;-63
2023/01/14 04:18:02;;;;;;;;;3.33;1.67;;;;;12.22;72.17;100951.78;2080490;28;46651;-64
2023/01/14 04:19:02;;;;;;;;;2.50;2.50;;;;;12.23;72.28;100944.66;2078883;28;46637;-63
2023/01/14 04:20:03;;;;;;;;;1.00;1.00;;;;;12.23;72.19;100936.69;2087311;28;46866;-62
2023/01/14 04:21:03;;;;;;;;;3.50;1.00;;;;;12.22;72.14;100933.16;2087444;28;46605;-63
2023/01/14 04:22:04;;;;;;;;;2.67;2.67;;;;;12.21;72.08;100931.41;2086861;28;46558;-63
2023/01/14 04:23:04;;;;;;;;;3.00;2.00;;;;;12.20;72.24;100923.47;2087172;28;47037;-63
2023/01/14 04:24:05;;;;;;;;;2.00;1.00;;;;;12.19;72.18;100924.34;2087065;28;45819;-63
2023/01/14 04:25:05;;;;;;;;;1.33;1.33;;;;;12.19;72.31;100933.19;2087278;28;46460;-63
2023/01/14 04:26:06;;;;;;;;;1.00;1.00;;;;;12.20;72.20;100934.09;2086258;28;46093;-62
2023/01/14 04:27:06;;;;;;;;;3.33;1.67;;;;;12.19;72.17;100927.88;2079664;28;46220;-63
2023/01/14 04:28:06;;;;;;;;;1.00;1.00;;;;;12.17;72.42;100916.41;2087629;28;46547;-62
2023/01/14 04:29:07;;;;;;;;;3.50;2.00;;;;;12.18;72.33;100926.13;2095156;28;46570;-62
2023/01/14 04:30:08;;;;;;;;;3.33;1.00;;;;;12.18;72.33;100922.59;2095486;28;46783;-62
2023/01/14 04:31:08;;;;;;;;;1.00;1.00;;;;;12.16;72.51;100922.63;2095878;27;46499;-62
2023/01/14 04:32:09;;;;;;;;;1.00;1.00;;;;;12.18;72.22;100914.63;2103877;27;46692;-62
2023/01/14 04:33:09;;;;;;;;;3.00;2.00;;;;;12.18;72.55;100923.47;2096706;28;46514;-63
2023/01/14 04:34:09;;;;;;;;;3.00;2.00;;;;;12.19;72.22;100924.34;2101889;28;45930;-63
2023/01/14 04:35:10;;;;;;;;;2.67;1.33;;;;;12.17;72.39;100916.41;2103835;28;46799;-62
2023/01/14 04:36:10;;;;;;;;;4.00;1.67;;;;;12.19;72.21;100908.38;2103711;28;46590;-62
2023/01/14 04:37:11;;;;;;;;;1.00;1.00;;;;;12.18;72.43;100907.50;2104924;28;46043;-63
2023/01/14 04:38:11;;;;;;;;;3.67;3.00;;;;;12.19;72.42;100911.03;2095616;28;46003;-63
2023/01/14 04:39:11;;;;;;;;;3.67;2.67;;;;;12.20;72.42;100912.81;2096044;28;46414;-63
2023/01/14 04:40:12;;;;;;;;;4.00;2.00;;;;;12.20;72.38;100916.34;2104942;28;46271;-64
2023/01/14 04:42:26;;;;;;;;;3.67;3.00;;;;;12.19;72.17;100925.22;2105169;28;46283;-63
2023/01/14 04:42:32;;;;;;;;;2.00;2.00;;;;;12.19;72.21;100925.22;2104337;27;46845;-62
2023/01/14 04:43:33;;;;;;;;;4.67;3.00;;;;;12.18;72.38;100930.56;2104907;28;45544;-64
2023/01/14 04:44:33;;;;;;;;;2.67;2.67;;;;;12.18;72.39;100938.56;2104785;28;46618;-63
2023/01/14 04:45:33;;;;;;;;;2.00;2.00;;;;;12.18;72.40;100927.91;2096209;28;45771;-62
2023/01/14 04:46:34;;;;;;;;;4.00;3.00;;;;;12.17;72.27;100923.50;2095459;28;46526;-61
2023/01/14 04:47:34;;;;;;;;;3.00;2.00;;;;;12.18;72.44;100919.94;2096033;28;46425;-63
2023/01/14 04:48:34;;;;;;;;;5.00;3.00;;;;;12.18;72.41;100904.84;2096456;28;46408;-62
2023/01/14 04:49:35;;;;;;;;;5.00;4.00;;;;;12.18;72.40;100911.97;2103818;28;46641;-62
2023/01/14 04:50:44;;;;;;;;;3.00;3.00;;;;;12.18;72.26;100909.28;2103479;28;46867;-63
2023/01/14 04:51:44;;;;;;;;;3.75;2.75;;;;;12.19;72.39;100911.91;2099977;28;46800;-62
2023/01/14 04:52:44;;;;;;;;;2.67;2.67;;;;;12.20;72.32;100902.19;2113028;27;46537;-63
2023/01/14 04:53:44;;;;;;;;;4.00;3.67;;;;;12.22;72.38;100911.00;2097349;28;46542;-63
2023/01/14 04:54:45;;;;;;;;;1.00;1.00;;;;;12.22;72.26;100911.84;2095285;28;46520;-62
2023/01/14 04:55:46;;;;;;;;;6.00;3.00;;;;;12.23;72.35;100904.75;2095663;28;46410;-63
2023/01/14 04:56:46;;;;;;;;;5.33;3.67;;;;;12.23;72.49;100894.97;2095726;28;46304;-62
2023/01/14 04:57:46;;;;;;;;;2.33;2.33;;;;;12.24;72.35;100899.38;2095804;28;46297;-63
2023/01/14 04:58:47;;;;;;;;;2.00;2.00;;;;;12.25;72.23;100892.28;2095353;28;46303;-63
2023/01/14 04:59:47;;;;;;;;;1.00;0.33;;;;;12.26;72.20;100896.69;2104861;27;46234;-63
2023/01/14 05:00:47;;;;;;;;;4.33;2.00;;;;;12.25;72.22;100894.94;2105425;28;45739;-64
2023/01/14 05:01:48;;;;;;;;;4.00;2.67;;;;;12.26;72.37;100891.34;2104450;27;46214;-64
2023/01/14 05:02:48;;;;;;;;;5.67;3.67;;;;;12.26;72.32;100881.59;2106037;27;46038;-62
2023/01/14 05:03:48;;;;;;;;;1.67;1.00;;;;;12.25;72.14;100877.19;2106704;27;45247;-63
2023/01/14 05:04:49;;;;;;;;;0.67;0.67;;;;;12.26;72.46;100875.41;2105337;27;46945;-64
2023/01/14 05:05:49;;;;;;;;;2.67;2.00;;;;;12.25;72.25;100871.00;2104716;28;46592;-62
2023/01/14 05:06:49;;;;;;;;;4.00;2.00;;;;;12.27;72.26;100866.50;2104538;28;46183;-63
2023/01/14 05:07:50;;;;;;;;;4.67;2.67;;;;;12.27;72.27;100853.19;2104555;28;46643;-62
2023/01/14 05:08:50;;;;;;;;;5.00;3.67;;;;;12.28;72.27;100862.91;2104612;28;45886;-62